sensor_id;sensor_type;location;lat;lon;timestamp;P1;durP1;ratioP1;P2;durP2;ratioP2
28613;SDS011;15806;53.548;9.964;2023-07-29T00:01:25;4.50;;;3.00;;
28613;SDS011;15806;53.548;9.964;2023-07-29T00:03:06;7.23;;;3.20;;
28613;SDS011;15806;53.548;9.964;2023-07-29T00:04:46;7.57;;;3.30;;
28613;SDS011;15806;53.548;9.964;2023-07-29T00:06:26;5.23;;;3.37;;
28613;SDS011;15806;53.548;9.964;2023-07-29T00:08:07;8.53;;;3.60;;
28613;SDS011;15806;53.548;9.964;2023-07-29T00:09:48;6.53;;;3.67;;
28613;SDS011;15806;53.548;9.964;2023-07-29T00:11:28;6.60;;;3.97;;
28613;SDS011;15806;53.548;9.964;2023-07-29T00:13:09;6.47;;;3.17;;
28613;SDS011;15806;53.548;9.964;2023-07-29T00:14:49;8.10;;;3.63;;
28613;SDS011;15806;53.548;9.964;2023-07-29T00:16:30;9.43;;;3.70;;
28613;SDS011;15806;53.548;9.964;2023-07-29T00:18:10;5.33;;;3.50;;
28613;SDS011;15806;53.548;9.964;2023-07-29T00:19:50;6.57;;;3.17;;
28613;SDS011;15806;53.548;9.964;2023-07-29T00:21:31;7.00;;;3.33;;
28613;SDS011;15806;53.548;9.964;2023-07-29T00:23:11;7.43;;;3.70;;
28613;SDS011;15806;53.548;9.964;2023-07-29T00:24:52;6.17;;;3.80;;
28613;SDS011;15806;53.548;9.964;2023-07-29T00:26:33;8.20;;;3.95;;
28613;SDS011;15806;53.548;9.964;2023-07-29T00:28:14;6.10;;;3.10;;
28613;SDS011;15806;53.548;9.964;2023-07-29T00:29:54;6.83;;;3.20;;
28613;SDS011;15806;53.548;9.964;2023-07-29T00:31:35;8.63;;;4.27;;
28613;SDS011;15806;53.548;9.964;2023-07-29T00:33:17;6.60;;;3.23;;
28613;SDS011;15806;53.548;9.964;2023-07-29T00:34:57;6.00;;;2.70;;
28613;SDS011;15806;53.548;9.964;2023-07-29T00:36:38;7.17;;;3.07;;
28613;SDS011;15806;53.548;9.964;2023-07-29T00:38:18;8.67;;;2.83;;
28613;SDS011;15806;53.548;9.964;2023-07-29T00:39:59;5.47;;;3.00;;
28613;SDS011;15806;53.548;9.964;2023-07-29T00:41:39;3.93;;;2.80;;
28613;SDS011;15806;53.548;9.964;2023-07-29T00:43:20;6.70;;;2.75;;
28613;SDS011;15806;53.548;9.964;2023-07-29T00:45:00;5.13;;;3.03;;
28613;SDS011;15806;53.548;9.964;2023-07-29T00:46:41;4.87;;;2.80;;
28613;SDS011;15806;53.548;9.964;2023-07-29T00:48:22;5.65;;;3.17;;
28613;SDS011;15806;53.548;9.964;2023-07-29T00:50:03;3.72;;;2.45;;
28613;SDS011;15806;53.548;9.964;2023-07-29T00:51:44;6.05;;;2.63;;
28613;SDS011;15806;53.548;9.964;2023-07-29T00:53:25;8.65;;;3.28;;
28613;SDS011;15806;53.548;9.964;2023-07-29T00:55:07;5.07;;;3.13;;
28613;SDS011;15806;53.548;9.964;2023-07-29T00:56:48;5.97;;;3.40;;
28613;SDS011;15806;53.548;9.964;2023-07-29T00:58:29;5.03;;;3.42;;
28613;SDS011;15806;53.548;9.964;2023-07-29T01:01:55;6.15;;;3.22;;
28613;SDS011;15806;53.548;9.964;2023-07-29T01:03:37;6.78;;;3.53;;
28613;SDS011;15806;53.548;9.964;2023-07-29T01:05:17;5.70;;;3.33;;
28613;SDS011;15806;53.548;9.964;2023-07-29T01:16:41;6.83;;;4.23;;
28613;SDS011;15806;53.548;9.964;2023-07-29T01:18:23;6.55;;;4.25;;
28613;SDS011;15806;53.548;9.964;2023-07-29T01:20:08;5.97;;;3.90;;
28613;SDS011;15806;53.548;9.964;2023-07-29T01:21:49;7.65;;;4.40;;
28613;SDS011;15806;53.548;9.964;2023-07-29T01:23:31;6.55;;;4.20;;
28613;SDS011;15806;53.548;9.964;2023-07-29T01:25:12;12.30;;;4.80;;
28613;SDS011;15806;53.548;9.964;2023-07-29T01:26:53;7.45;;;4.65;;
28613;SDS011;15806;53.548;9.964;2023-07-29T01:28:34;10.00;;;5.07;;
28613;SDS011;15806;53.548;9.964;2023-07-29T01:30:14;7.75;;;4.60;;
28613;SDS011;15806;53.548;9.964;2023-07-29T01:31:56;7.05;;;3.80;;
28613;SDS011;15806;53.548;9.964;2023-07-29T01:35:48;7.95;;;4.32;;
28613;SDS011;15806;53.548;9.964;2023-07-29T01:37:33;7.07;;;4.47;;
28613;SDS011;15806;53.548;9.964;2023-07-29T01:39:15;5.50;;;4.18;;
28613;SDS011;15806;53.548;9.964;2023-07-29T01:40:57;7.45;;;4.53;;
28613;SDS011;15806;53.548;9.964;2023-07-29T01:42:38;7.20;;;4.20;;
28613;SDS011;15806;53.548;9.964;2023-07-29T01:44:19;11.18;;;3.50;;
28613;SDS011;15806;53.548;9.964;2023-07-29T01:46:00;8.75;;;4.18;;
28613;SDS011;15806;53.548;9.964;2023-07-29T01:47:41;9.50;;;4.70;;
28613;SDS011;15806;53.548;9.964;2023-07-29T01:49:22;10.20;;;4.68;;
28613;SDS011;15806;53.548;9.964;2023-07-29T01:51:03;9.25;;;4.80;;
28613;SDS011;15806;53.548;9.964;2023-07-29T01:52:44;10.68;;;5.22;;
28613;SDS011;15806;53.548;9.964;2023-07-29T01:54:25;11.20;;;5.18;;
28613;SDS011;15806;53.548;9.964;2023-07-29T01:56:06;8.27;;;5.10;;
28613;SDS011;15806;53.548;9.964;2023-07-29T01:57:47;10.25;;;4.45;;
28613;SDS011;15806;53.548;9.964;2023-07-29T01:59:28;9.95;;;4.80;;
28613;SDS011;15806;53.548;9.964;2023-07-29T02:01:10;8.40;;;4.83;;
28613;SDS011;15806;53.548;9.964;2023-07-29T02:02:51;9.27;;;5.35;;
28613;SDS011;15806;53.548;9.964;2023-07-29T02:04:32;8.27;;;4.85;;
28613;SDS011;15806;53.548;9.964;2023-07-29T02:06:14;10.57;;;5.90;;
28613;SDS011;15806;53.548;9.964;2023-07-29T02:07:55;10.23;;;5.68;;
28613;SDS011;15806;53.548;9.964;2023-07-29T02:09:39;13.43;;;5.67;;
28613;SDS011;15806;53.548;9.964;2023-07-29T02:11:20;12.68;;;6.40;;
28613;SDS011;15806;53.548;9.964;2023-07-29T02:13:01;13.95;;;5.80;;
28613;SDS011;15806;53.548;9.964;2023-07-29T02:14:42;11.45;;;5.47;;
28613;SDS011;15806;53.548;9.964;2023-07-29T02:16:23;9.10;;;5.38;;
28613;SDS011;15806;53.548;9.964;2023-07-29T02:18:04;9.60;;;5.35;;
28613;SDS011;15806;53.548;9.964;2023-07-29T02:19:45;11.50;;;6.43;;
28613;SDS011;15806;53.548;9.964;2023-07-29T02:21:26;10.07;;;5.55;;
28613;SDS011;15806;53.548;9.964;2023-07-29T02:23:06;12.33;;;6.40;;
28613;SDS011;15806;53.548;9.964;2023-07-29T02:24:47;12.10;;;5.90;;
28613;SDS011;15806;53.548;9.964;2023-07-29T02:26:28;10.75;;;5.32;;
28613;SDS011;15806;53.548;9.964;2023-07-29T02:28:09;11.15;;;5.90;;
28613;SDS011;15806;53.548;9.964;2023-07-29T02:29:50;14.63;;;6.03;;
28613;SDS011;15806;53.548;9.964;2023-07-29T02:31:31;14.90;;;6.35;;
28613;SDS011;15806;53.548;9.964;2023-07-29T02:33:12;12.77;;;5.75;;
28613;SDS011;15806;53.548;9.964;2023-07-29T02:34:53;13.18;;;6.38;;
28613;SDS011;15806;53.548;9.964;2023-07-29T02:36:34;12.80;;;5.82;;
28613;SDS011;15806;53.548;9.964;2023-07-29T02:38:14;12.40;;;6.47;;
28613;SDS011;15806;53.548;9.964;2023-07-29T02:39:55;15.20;;;6.43;;
28613;SDS011;15806;53.548;9.964;2023-07-29T02:41:36;10.25;;;6.03;;
28613;SDS011;15806;53.548;9.964;2023-07-29T02:43:17;11.20;;;6.00;;
28613;SDS011;15806;53.548;9.964;2023-07-29T02:44:58;12.10;;;6.07;;
28613;SDS011;15806;53.548;9.964;2023-07-29T02:46:39;13.00;;;6.97;;
28613;SDS011;15806;53.548;9.964;2023-07-29T02:48:20;11.90;;;6.77;;
28613;SDS011;15806;53.548;9.964;2023-07-29T02:50:01;16.80;;;7.25;;
28613;SDS011;15806;53.548;9.964;2023-07-29T02:51:42;12.38;;;7.28;;
28613;SDS011;15806;53.548;9.964;2023-07-29T02:53:22;13.65;;;6.43;;
28613;SDS011;15806;53.548;9.964;2023-07-29T02:55:03;14.15;;;6.95;;
28613;SDS011;15806;53.548;9.964;2023-07-29T02:56:44;13.13;;;7.18;;
28613;SDS011;15806;53.548;9.964;2023-07-29T02:58:25;12.37;;;7.40;;
28613;SDS011;15806;53.548;9.964;2023-07-29T03:00:06;16.27;;;6.65;;
28613;SDS011;15806;53.548;9.964;2023-07-29T03:01:47;14.70;;;6.80;;
28613;SDS011;15806;53.548;9.964;2023-07-29T03:03:29;15.93;;;7.40;;
28613;SDS011;15806;53.548;9.964;2023-07-29T03:05:10;13.63;;;6.63;;
28613;SDS011;15806;53.548;9.964;2023-07-29T03:06:51;15.70;;;7.18;;
28613;SDS011;15806;53.548;9.964;2023-07-29T03:08:32;16.98;;;7.72;;
28613;SDS011;15806;53.548;9.964;2023-07-29T03:10:14;16.60;;;7.57;;
28613;SDS011;15806;53.548;9.964;2023-07-29T03:11:55;16.13;;;7.10;;
28613;SDS011;15806;53.548;9.964;2023-07-29T03:13:36;13.88;;;7.32;;
28613;SDS011;15806;53.548;9.964;2023-07-29T03:15:18;15.20;;;7.40;;
28613;SDS011;15806;53.548;9.964;2023-07-29T03:17:01;15.85;;;7.68;;
28613;SDS011;15806;53.548;9.964;2023-07-29T03:18:42;17.65;;;7.28;;
28613;SDS011;15806;53.548;9.964;2023-07-29T03:20:23;15.43;;;8.43;;
28613;SDS011;15806;53.548;9.964;2023-07-29T03:22:04;14.63;;;7.57;;
28613;SDS011;15806;53.548;9.964;2023-07-29T03:23:45;17.58;;;7.13;;
28613;SDS011;15806;53.548;9.964;2023-07-29T03:25:26;15.55;;;6.90;;
28613;SDS011;15806;53.548;9.964;2023-07-29T03:27:08;17.05;;;7.63;;
28613;SDS011;15806;53.548;9.964;2023-07-29T03:28:49;15.30;;;8.20;;
28613;SDS011;15806;53.548;9.964;2023-07-29T03:30:30;20.23;;;7.90;;
28613;SDS011;15806;53.548;9.964;2023-07-29T03:32:11;20.75;;;7.53;;
28613;SDS011;15806;53.548;9.964;2023-07-29T03:33:52;17.48;;;8.68;;
28613;SDS011;15806;53.548;9.964;2023-07-29T03:35:33;17.37;;;8.27;;
28613;SDS011;15806;53.548;9.964;2023-07-29T03:37:14;18.85;;;8.05;;
28613;SDS011;15806;53.548;9.964;2023-07-29T03:38:55;16.92;;;8.10;;
28613;SDS011;15806;53.548;9.964;2023-07-29T03:40:35;24.08;;;8.52;;
28613;SDS011;15806;53.548;9.964;2023-07-29T03:42:16;18.27;;;8.10;;
28613;SDS011;15806;53.548;9.964;2023-07-29T03:43:57;22.15;;;8.15;;
28613;SDS011;15806;53.548;9.964;2023-07-29T03:45:38;15.98;;;8.15;;
28613;SDS011;15806;53.548;9.964;2023-07-29T03:47:19;18.40;;;8.23;;
28613;SDS011;15806;53.548;9.964;2023-07-29T03:49:00;20.00;;;8.48;;
28613;SDS011;15806;53.548;9.964;2023-07-29T03:50:41;15.77;;;7.80;;
28613;SDS011;15806;53.548;9.964;2023-07-29T03:52:22;22.13;;;8.63;;
28613;SDS011;15806;53.548;9.964;2023-07-29T03:54:03;16.95;;;8.90;;
28613;SDS011;15806;53.548;9.964;2023-07-29T03:55:44;21.85;;;9.10;;
28613;SDS011;15806;53.548;9.964;2023-07-29T03:57:25;20.85;;;8.90;;
28613;SDS011;15806;53.548;9.964;2023-07-29T03:59:06;18.67;;;9.27;;
28613;SDS011;15806;53.548;9.964;2023-07-29T04:00:47;19.13;;;8.93;;
28613;SDS011;15806;53.548;9.964;2023-07-29T04:02:27;21.73;;;8.98;;
28613;SDS011;15806;53.548;9.964;2023-07-29T04:04:08;22.00;;;10.00;;
28613;SDS011;15806;53.548;9.964;2023-07-29T04:05:49;19.70;;;9.45;;
28613;SDS011;15806;53.548;9.964;2023-07-29T04:07:30;28.60;;;11.75;;
28613;SDS011;15806;53.548;9.964;2023-07-29T04:09:11;23.83;;;11.00;;
28613;SDS011;15806;53.548;9.964;2023-07-29T04:10:52;22.45;;;10.40;;
28613;SDS011;15806;53.548;9.964;2023-07-29T04:12:33;23.25;;;10.38;;
28613;SDS011;15806;53.548;9.964;2023-07-29T04:14:14;27.33;;;10.65;;
28613;SDS011;15806;53.548;9.964;2023-07-29T04:15:55;30.20;;;13.13;;
28613;SDS011;15806;53.548;9.964;2023-07-29T04:17:36;34.78;;;14.40;;
28613;SDS011;15806;53.548;9.964;2023-07-29T04:19:17;34.83;;;14.27;;
28613;SDS011;15806;53.548;9.964;2023-07-29T04:20:58;37.78;;;15.13;;
28613;SDS011;15806;53.548;9.964;2023-07-29T04:22:39;46.40;;;16.55;;
28613;SDS011;15806;53.548;9.964;2023-07-29T04:24:20;38.95;;;17.27;;
28613;SDS011;15806;53.548;9.964;2023-07-29T04:26:01;59.00;;;19.58;;
28613;SDS011;15806;53.548;9.964;2023-07-29T04:27:41;53.92;;;20.00;;
28613;SDS011;15806;53.548;9.964;2023-07-29T04:29:22;60.90;;;21.95;;
28613;SDS011;15806;53.548;9.964;2023-07-29T04:31:03;54.20;;;20.13;;
28613;SDS011;15806;53.548;9.964;2023-07-29T04:32:44;59.50;;;21.02;;
28613;SDS011;15806;53.548;9.964;2023-07-29T04:34:25;48.00;;;20.02;;
28613;SDS011;15806;53.548;9.964;2023-07-29T04:36:06;46.00;;;18.23;;
28613;SDS011;15806;53.548;9.964;2023-07-29T04:37:47;45.70;;;19.23;;
28613;SDS011;15806;53.548;9.964;2023-07-29T04:39:28;56.47;;;21.05;;
28613;SDS011;15806;53.548;9.964;2023-07-29T04:41:08;50.30;;;18.67;;
28613;SDS011;15806;53.548;9.964;2023-07-29T04:42:50;43.95;;;18.27;;
28613;SDS011;15806;53.548;9.964;2023-07-29T04:44:31;45.15;;;20.25;;
28613;SDS011;15806;53.548;9.964;2023-07-29T04:46:12;47.58;;;19.98;;
28613;SDS011;15806;53.548;9.964;2023-07-29T04:47:53;45.22;;;19.40;;
28613;SDS011;15806;53.548;9.964;2023-07-29T04:49:34;53.92;;;19.80;;
28613;SDS011;15806;53.548;9.964;2023-07-29T04:51:15;45.63;;;19.10;;
28613;SDS011;15806;53.548;9.964;2023-07-29T04:52:56;43.10;;;17.05;;
28613;SDS011;15806;53.548;9.964;2023-07-29T04:54:37;42.33;;;18.13;;
28613;SDS011;15806;53.548;9.964;2023-07-29T04:56:18;47.17;;;18.65;;
28613;SDS011;15806;53.548;9.964;2023-07-29T04:57:58;48.65;;;19.75;;
28613;SDS011;15806;53.548;9.964;2023-07-29T04:59:39;45.17;;;17.83;;
28613;SDS011;15806;53.548;9.964;2023-07-29T05:01:20;39.17;;;18.80;;
28613;SDS011;15806;53.548;9.964;2023-07-29T05:03:01;46.67;;;18.95;;
28613;SDS011;15806;53.548;9.964;2023-07-29T05:04:42;45.70;;;19.98;;
28613;SDS011;15806;53.548;9.964;2023-07-29T05:06:23;47.25;;;18.50;;
28613;SDS011;15806;53.548;9.964;2023-07-29T05:08:04;51.55;;;20.25;;
28613;SDS011;15806;53.548;9.964;2023-07-29T05:09:45;57.65;;;20.92;;
28613;SDS011;15806;53.548;9.964;2023-07-29T05:11:26;41.78;;;17.33;;
28613;SDS011;15806;53.548;9.964;2023-07-29T05:13:06;41.05;;;17.23;;
28613;SDS011;15806;53.548;9.964;2023-07-29T05:14:47;40.20;;;15.90;;
28613;SDS011;15806;53.548;9.964;2023-07-29T05:16:28;37.42;;;14.65;;
28613;SDS011;15806;53.548;9.964;2023-07-29T05:18:09;39.92;;;17.15;;
28613;SDS011;15806;53.548;9.964;2023-07-29T05:19:50;40.25;;;17.33;;
28613;SDS011;15806;53.548;9.964;2023-07-29T05:21:31;39.35;;;17.02;;
28613;SDS011;15806;53.548;9.964;2023-07-29T05:23:12;37.95;;;16.92;;
28613;SDS011;15806;53.548;9.964;2023-07-29T05:24:53;34.00;;;15.82;;
28613;SDS011;15806;53.548;9.964;2023-07-29T05:26:34;39.10;;;17.30;;
28613;SDS011;15806;53.548;9.964;2023-07-29T05:28:15;36.20;;;15.98;;
28613;SDS011;15806;53.548;9.964;2023-07-29T05:29:55;35.75;;;16.00;;
28613;SDS011;15806;53.548;9.964;2023-07-29T05:31:36;35.45;;;16.00;;
28613;SDS011;15806;53.548;9.964;2023-07-29T05:33:17;39.30;;;17.42;;
28613;SDS011;15806;53.548;9.964;2023-07-29T05:34:58;43.88;;;17.27;;
28613;SDS011;15806;53.548;9.964;2023-07-29T05:36:39;31.58;;;15.75;;
28613;SDS011;15806;53.548;9.964;2023-07-29T05:38:20;34.40;;;16.70;;
28613;SDS011;15806;53.548;9.964;2023-07-29T05:40:01;34.47;;;16.77;;
28613;SDS011;15806;53.548;9.964;2023-07-29T05:41:42;30.42;;;16.05;;
28613;SDS011;15806;53.548;9.964;2023-07-29T05:43:26;35.47;;;17.58;;
28613;SDS011;15806;53.548;9.964;2023-07-29T05:45:07;37.60;;;17.85;;
28613;SDS011;15806;53.548;9.964;2023-07-29T05:46:48;34.38;;;17.33;;
28613;SDS011;15806;53.548;9.964;2023-07-29T05:48:29;39.10;;;16.67;;
28613;SDS011;15806;53.548;9.964;2023-07-29T05:50:10;33.60;;;17.17;;
28613;SDS011;15806;53.548;9.964;2023-07-29T05:51:51;29.67;;;15.30;;
28613;SDS011;15806;53.548;9.964;2023-07-29T05:53:32;30.20;;;15.80;;
28613;SDS011;15806;53.548;9.964;2023-07-29T05:55:12;36.03;;;16.98;;
28613;SDS011;15806;53.548;9.964;2023-07-29T05:56:53;30.47;;;15.80;;
28613;SDS011;15806;53.548;9.964;2023-07-29T05:58:34;27.50;;;15.80;;
28613;SDS011;15806;53.548;9.964;2023-07-29T06:00:15;36.08;;;18.20;;
28613;SDS011;15806;53.548;9.964;2023-07-29T06:01:56;41.03;;;18.25;;
28613;SDS011;15806;53.548;9.964;2023-07-29T06:03:37;36.50;;;17.17;;
28613;SDS011;15806;53.548;9.964;2023-07-29T06:05:18;35.40;;;16.48;;
28613;SDS011;15806;53.548;9.964;2023-07-29T06:06:59;35.20;;;17.80;;
28613;SDS011;15806;53.548;9.964;2023-07-29T06:08:40;34.05;;;15.88;;
28613;SDS011;15806;53.548;9.964;2023-07-29T06:10:21;33.50;;;17.10;;
28613;SDS011;15806;53.548;9.964;2023-07-29T06:12:02;33.00;;;17.02;;
28613;SDS011;15806;53.548;9.964;2023-07-29T06:13:43;31.38;;;15.68;;
28613;SDS011;15806;53.548;9.964;2023-07-29T06:15:23;34.55;;;17.13;;
28613;SDS011;15806;53.548;9.964;2023-07-29T06:17:04;34.40;;;17.05;;
28613;SDS011;15806;53.548;9.964;2023-07-29T06:18:45;38.47;;;16.00;;
28613;SDS011;15806;53.548;9.964;2023-07-29T06:20:26;28.60;;;14.43;;
28613;SDS011;15806;53.548;9.964;2023-07-29T06:22:07;27.70;;;13.63;;
28613;SDS011;15806;53.548;9.964;2023-07-29T06:23:49;33.70;;;16.00;;
28613;SDS011;15806;53.548;9.964;2023-07-29T06:25:30;33.15;;;16.63;;
28613;SDS011;15806;53.548;9.964;2023-07-29T06:27:11;31.07;;;16.33;;
28613;SDS011;15806;53.548;9.964;2023-07-29T06:28:52;33.83;;;15.23;;
28613;SDS011;15806;53.548;9.964;2023-07-29T06:30:33;28.70;;;15.05;;
28613;SDS011;15806;53.548;9.964;2023-07-29T06:32:14;29.65;;;15.02;;
28613;SDS011;15806;53.548;9.964;2023-07-29T06:33:55;30.75;;;15.32;;
28613;SDS011;15806;53.548;9.964;2023-07-29T06:35:36;29.10;;;15.75;;
28613;SDS011;15806;53.548;9.964;2023-07-29T06:37:17;26.67;;;14.15;;
28613;SDS011;15806;53.548;9.964;2023-07-29T06:38:57;27.27;;;14.25;;
28613;SDS011;15806;53.548;9.964;2023-07-29T06:40:38;28.58;;;14.07;;
28613;SDS011;15806;53.548;9.964;2023-07-29T06:42:19;28.75;;;14.45;;
28613;SDS011;15806;53.548;9.964;2023-07-29T06:44:00;24.65;;;14.38;;
28613;SDS011;15806;53.548;9.964;2023-07-29T06:45:41;32.42;;;15.32;;
28613;SDS011;15806;53.548;9.964;2023-07-29T06:47:22;26.52;;;14.38;;
28613;SDS011;15806;53.548;9.964;2023-07-29T06:49:04;25.58;;;14.15;;
28613;SDS011;15806;53.548;9.964;2023-07-29T06:50:45;25.15;;;13.07;;
28613;SDS011;15806;53.548;9.964;2023-07-29T06:52:26;24.95;;;14.15;;
28613;SDS011;15806;53.548;9.964;2023-07-29T06:54:07;25.05;;;13.23;;
28613;SDS011;15806;53.548;9.964;2023-07-29T06:55:48;26.60;;;13.27;;
28613;SDS011;15806;53.548;9.964;2023-07-29T06:57:29;28.33;;;15.25;;
28613;SDS011;15806;53.548;9.964;2023-07-29T06:59:10;27.23;;;13.80;;
28613;SDS011;15806;53.548;9.964;2023-07-29T07:00:51;23.05;;;13.60;;
28613;SDS011;15806;53.548;9.964;2023-07-29T07:02:32;29.20;;;13.75;;
28613;SDS011;15806;53.548;9.964;2023-07-29T07:04:13;30.58;;;13.40;;
28613;SDS011;15806;53.548;9.964;2023-07-29T07:05:53;24.60;;;13.35;;
28613;SDS011;15806;53.548;9.964;2023-07-29T07:07:34;23.60;;;12.63;;
28613;SDS011;15806;53.548;9.964;2023-07-29T07:09:15;24.85;;;12.40;;
28613;SDS011;15806;53.548;9.964;2023-07-29T07:10:56;23.95;;;13.50;;
28613;SDS011;15806;53.548;9.964;2023-07-29T07:12:37;24.95;;;11.40;;
28613;SDS011;15806;53.548;9.964;2023-07-29T07:14:18;25.38;;;12.93;;
28613;SDS011;15806;53.548;9.964;2023-07-29T07:15:59;29.10;;;14.13;;
28613;SDS011;15806;53.548;9.964;2023-07-29T07:17:40;25.55;;;13.35;;
28613;SDS011;15806;53.548;9.964;2023-07-29T07:19:21;23.77;;;12.02;;
28613;SDS011;15806;53.548;9.964;2023-07-29T07:21:01;22.40;;;12.18;;
28613;SDS011;15806;53.548;9.964;2023-07-29T07:22:42;25.52;;;13.73;;
28613;SDS011;15806;53.548;9.964;2023-07-29T07:24:23;29.88;;;13.48;;
28613;SDS011;15806;53.548;9.964;2023-07-29T07:26:04;24.05;;;12.25;;
28613;SDS011;15806;53.548;9.964;2023-07-29T07:27:45;22.38;;;12.13;;
28613;SDS011;15806;53.548;9.964;2023-07-29T07:29:26;26.10;;;13.65;;
28613;SDS011;15806;53.548;9.964;2023-07-29T07:31:07;20.80;;;12.10;;
28613;SDS011;15806;53.548;9.964;2023-07-29T07:32:47;25.10;;;13.40;;
28613;SDS011;15806;53.548;9.964;2023-07-29T07:34:28;28.03;;;13.03;;
28613;SDS011;15806;53.548;9.964;2023-07-29T07:36:08;25.93;;;12.67;;
28613;SDS011;15806;53.548;9.964;2023-07-29T07:37:49;21.03;;;10.97;;
28613;SDS011;15806;53.548;9.964;2023-07-29T07:39:29;22.47;;;12.07;;
28613;SDS011;15806;53.548;9.964;2023-07-29T07:42:51;23.27;;;10.43;;
28613;SDS011;15806;53.548;9.964;2023-07-29T07:44:32;18.67;;;10.87;;
28613;SDS011;15806;53.548;9.964;2023-07-29T07:46:12;22.27;;;10.93;;
28613;SDS011;15806;53.548;9.964;2023-07-29T07:47:53;22.50;;;10.27;;
28613;SDS011;15806;53.548;9.964;2023-07-29T07:49:33;20.30;;;8.17;;
28613;SDS011;15806;53.548;9.964;2023-07-29T07:51:14;15.93;;;9.70;;
28613;SDS011;15806;53.548;9.964;2023-07-29T07:52:54;16.03;;;8.60;;
28613;SDS011;15806;53.548;9.964;2023-07-29T07:54:35;16.03;;;9.03;;
28613;SDS011;15806;53.548;9.964;2023-07-29T07:56:15;18.90;;;9.87;;
28613;SDS011;15806;53.548;9.964;2023-07-29T07:57:56;20.90;;;9.73;;
28613;SDS011;15806;53.548;9.964;2023-07-29T07:59:36;18.50;;;8.67;;
28613;SDS011;15806;53.548;9.964;2023-07-29T08:01:17;18.10;;;8.97;;
28613;SDS011;15806;53.548;9.964;2023-07-29T08:02:57;16.67;;;9.03;;
28613;SDS011;15806;53.548;9.964;2023-07-29T08:04:38;18.63;;;9.80;;
28613;SDS011;15806;53.548;9.964;2023-07-29T08:06:18;16.03;;;9.50;;
28613;SDS011;15806;53.548;9.964;2023-07-29T08:07:59;15.03;;;8.20;;
28613;SDS011;15806;53.548;9.964;2023-07-29T08:09:39;14.47;;;7.93;;
28613;SDS011;15806;53.548;9.964;2023-07-29T08:11:20;15.17;;;8.50;;
28613;SDS011;15806;53.548;9.964;2023-07-29T08:13:00;14.80;;;8.43;;
28613;SDS011;15806;53.548;9.964;2023-07-29T08:14:41;19.10;;;9.33;;
28613;SDS011;15806;53.548;9.964;2023-07-29T08:16:21;14.57;;;8.70;;
28613;SDS011;15806;53.548;9.964;2023-07-29T08:18:02;17.23;;;10.07;;
28613;SDS011;15806;53.548;9.964;2023-07-29T08:19:42;17.20;;;8.70;;
28613;SDS011;15806;53.548;9.964;2023-07-29T08:21:23;15.77;;;9.80;;
28613;SDS011;15806;53.548;9.964;2023-07-29T08:23:03;14.17;;;8.77;;
28613;SDS011;15806;53.548;9.964;2023-07-29T08:24:44;15.63;;;9.00;;
28613;SDS011;15806;53.548;9.964;2023-07-29T08:26:24;16.73;;;9.37;;
28613;SDS011;15806;53.548;9.964;2023-07-29T08:28:05;17.37;;;9.83;;
28613;SDS011;15806;53.548;9.964;2023-07-29T08:29:45;14.60;;;8.90;;
28613;SDS011;15806;53.548;9.964;2023-07-29T08:31:26;14.90;;;9.23;;
28613;SDS011;15806;53.548;9.964;2023-07-29T08:33:06;17.13;;;10.13;;
28613;SDS011;15806;53.548;9.964;2023-07-29T08:34:47;16.00;;;9.07;;
28613;SDS011;15806;53.548;9.964;2023-07-29T08:36:27;16.23;;;9.80;;
28613;SDS011;15806;53.548;9.964;2023-07-29T08:38:08;17.00;;;9.27;;
28613;SDS011;15806;53.548;9.964;2023-07-29T08:39:48;17.70;;;10.63;;
28613;SDS011;15806;53.548;9.964;2023-07-29T08:41:29;14.33;;;8.37;;
28613;SDS011;15806;53.548;9.964;2023-07-29T08:43:15;20.20;;;11.02;;
28613;SDS011;15806;53.548;9.964;2023-07-29T08:45:06;15.50;;;8.88;;
28613;SDS011;15806;53.548;9.964;2023-07-29T08:46:47;16.98;;;10.55;;
28613;SDS011;15806;53.548;9.964;2023-07-29T08:48:39;17.50;;;10.50;;
28613;SDS011;15806;53.548;9.964;2023-07-29T08:50:20;15.18;;;9.68;;
28613;SDS011;15806;53.548;9.964;2023-07-29T08:52:01;22.55;;;10.52;;
28613;SDS011;15806;53.548;9.964;2023-07-29T08:53:43;16.15;;;10.35;;
28613;SDS011;15806;53.548;9.964;2023-07-29T08:55:24;15.67;;;9.33;;
28613;SDS011;15806;53.548;9.964;2023-07-29T08:57:05;17.03;;;9.67;;
28613;SDS011;15806;53.548;9.964;2023-07-29T08:58:46;14.10;;;8.43;;
28613;SDS011;15806;53.548;9.964;2023-07-29T09:00:28;17.25;;;9.70;;
28613;SDS011;15806;53.548;9.964;2023-07-29T09:02:08;17.50;;;10.35;;
28613;SDS011;15806;53.548;9.964;2023-07-29T09:03:49;17.80;;;11.17;;
28613;SDS011;15806;53.548;9.964;2023-07-29T09:05:29;18.97;;;9.80;;
28613;SDS011;15806;53.548;9.964;2023-07-29T09:07:10;19.43;;;10.63;;
28613;SDS011;15806;53.548;9.964;2023-07-29T09:08:51;18.57;;;9.87;;
28613;SDS011;15806;53.548;9.964;2023-07-29T09:10:36;19.63;;;10.77;;
28613;SDS011;15806;53.548;9.964;2023-07-29T09:12:37;16.63;;;9.50;;
28613;SDS011;15806;53.548;9.964;2023-07-29T09:14:18;19.48;;;9.52;;
28613;SDS011;15806;53.548;9.964;2023-07-29T09:15:59;19.58;;;10.95;;
28613;SDS011;15806;53.548;9.964;2023-07-29T09:17:40;16.60;;;10.33;;
28613;SDS011;15806;53.548;9.964;2023-07-29T09:19:21;18.43;;;11.87;;
28613;SDS011;15806;53.548;9.964;2023-07-29T09:21:04;17.52;;;10.52;;
28613;SDS011;15806;53.548;9.964;2023-07-29T09:22:45;17.67;;;10.33;;
28613;SDS011;15806;53.548;9.964;2023-07-29T09:24:25;18.03;;;10.90;;
28613;SDS011;15806;53.548;9.964;2023-07-29T09:26:06;15.90;;;10.30;;
28613;SDS011;15806;53.548;9.964;2023-07-29T09:27:47;16.47;;;9.80;;
28613;SDS011;15806;53.548;9.964;2023-07-29T09:29:28;18.17;;;9.90;;
28613;SDS011;15806;53.548;9.964;2023-07-29T09:31:16;16.15;;;9.70;;
28613;SDS011;15806;53.548;9.964;2023-07-29T09:33:00;14.02;;;9.10;;
28613;SDS011;15806;53.548;9.964;2023-07-29T09:34:43;13.93;;;9.17;;
28613;SDS011;15806;53.548;9.964;2023-07-29T09:36:24;15.95;;;9.40;;
28613;SDS011;15806;53.548;9.964;2023-07-29T09:38:05;19.13;;;8.73;;
28613;SDS011;15806;53.548;9.964;2023-07-29T09:39:46;15.75;;;9.20;;
28613;SDS011;15806;53.548;9.964;2023-07-29T09:43:09;11.25;;;7.13;;
28613;SDS011;15806;53.548;9.964;2023-07-29T09:44:50;14.35;;;8.25;;
28613;SDS011;15806;53.548;9.964;2023-07-29T09:46:36;12.77;;;8.43;;
28613;SDS011;15806;53.548;9.964;2023-07-29T09:48:19;16.13;;;7.93;;
28613;SDS011;15806;53.548;9.964;2023-07-29T09:50:02;12.15;;;7.70;;
28613;SDS011;15806;53.548;9.964;2023-07-29T09:51:43;15.53;;;7.67;;
28613;SDS011;15806;53.548;9.964;2023-07-29T09:53:24;11.33;;;6.97;;
28613;SDS011;15806;53.548;9.964;2023-07-29T09:55:05;13.23;;;8.20;;
28613;SDS011;15806;53.548;9.964;2023-07-29T09:56:45;12.88;;;7.28;;
28613;SDS011;15806;53.548;9.964;2023-07-29T09:58:27;10.38;;;7.10;;
28613;SDS011;15806;53.548;9.964;2023-07-29T10:00:10;10.75;;;6.82;;
28613;SDS011;15806;53.548;9.964;2023-07-29T10:01:51;11.88;;;6.05;;
28613;SDS011;15806;53.548;9.964;2023-07-29T10:03:32;8.83;;;5.30;;
28613;SDS011;15806;53.548;9.964;2023-07-29T10:05:14;8.73;;;5.50;;
28613;SDS011;15806;53.548;9.964;2023-07-29T10:06:55;11.85;;;5.57;;
28613;SDS011;15806;53.548;9.964;2023-07-29T10:08:37;7.05;;;5.40;;
28613;SDS011;15806;53.548;9.964;2023-07-29T10:10:19;7.22;;;4.80;;
28613;SDS011;15806;53.548;9.964;2023-07-29T10:12:00;6.87;;;4.60;;
28613;SDS011;15806;53.548;9.964;2023-07-29T10:13:41;8.00;;;4.45;;
28613;SDS011;15806;53.548;9.964;2023-07-29T10:15:22;8.33;;;4.70;;